sensor_id;sensor_type;location;lat;lon;timestamp;P1;durP1;ratioP1;P2;durP2;ratioP2
9852;SDS011;4965;43.238;27.864;2022-07-03T00:01:54;2.65;;;2.42;;
9852;SDS011;4965;43.238;27.864;2022-07-03T00:04:21;2.67;;;2.47;;
9852;SDS011;4965;43.238;27.864;2022-07-03T00:06:48;4.40;;;2.42;;
9852;SDS011;4965;43.238;27.864;2022-07-03T00:09:15;5.68;;;2.60;;
9852;SDS011;4965;43.238;27.864;2022-07-03T00:11:44;4.20;;;2.67;;
9852;SDS011;4965;43.238;27.864;2022-07-03T00:14:11;2.88;;;2.50;;
9852;SDS011;4965;43.238;27.864;2022-07-03T00:16:38;4.05;;;2.60;;
9852;SDS011;4965;43.238;27.864;2022-07-03T00:19:06;8.43;;;2.42;;
9852;SDS011;4965;43.238;27.864;2022-07-03T00:21:34;8.88;;;3.55;;
9852;SDS011;4965;43.238;27.864;2022-07-03T00:24:03;3.63;;;2.30;;
9852;SDS011;4965;43.238;27.864;2022-07-03T00:26:34;6.35;;;2.55;;
9852;SDS011;4965;43.238;27.864;2022-07-03T00:29:03;3.05;;;2.72;;
9852;SDS011;4965;43.238;27.864;2022-07-03T00:31:32;3.55;;;2.60;;
9852;SDS011;4965;43.238;27.864;2022-07-03T00:34:00;3.45;;;2.90;;
9852;SDS011;4965;43.238;27.864;2022-07-03T00:36:34;5.88;;;2.35;;
9852;SDS011;4965;43.238;27.864;2022-07-03T00:39:02;3.17;;;2.88;;
9852;SDS011;4965;43.238;27.864;2022-07-03T00:41:30;4.65;;;2.70;;
9852;SDS011;4965;43.238;27.864;2022-07-03T00:43:58;2.78;;;2.50;;
9852;SDS011;4965;43.238;27.864;2022-07-03T00:46:26;3.38;;;2.42;;
9852;SDS011;4965;43.238;27.864;2022-07-03T00:48:54;4.40;;;3.30;;
9852;SDS011;4965;43.238;27.864;2022-07-03T00:51:22;4.95;;;2.60;;
9852;SDS011;4965;43.238;27.864;2022-07-03T00:53:52;5.28;;;2.97;;
9852;SDS011;4965;43.238;27.864;2022-07-03T00:56:22;3.83;;;3.00;;
9852;SDS011;4965;43.238;27.864;2022-07-03T00:58:52;5.43;;;3.20;;
9852;SDS011;4965;43.238;27.864;2022-07-03T01:01:21;5.18;;;2.83;;
9852;SDS011;4965;43.238;27.864;2022-07-03T01:03:55;5.47;;;2.80;;
9852;SDS011;4965;43.238;27.864;2022-07-03T01:06:31;4.60;;;3.33;;
9852;SDS011;4965;43.238;27.864;2022-07-03T01:09:03;5.78;;;3.63;;
9852;SDS011;4965;43.238;27.864;2022-07-03T01:11:34;4.72;;;3.70;;
9852;SDS011;4965;43.238;27.864;2022-07-03T01:14:10;6.28;;;3.33;;
9852;SDS011;4965;43.238;27.864;2022-07-03T01:16:45;6.63;;;3.47;;
9852;SDS011;4965;43.238;27.864;2022-07-03T01:19:27;4.35;;;3.53;;
9852;SDS011;4965;43.238;27.864;2022-07-03T01:22:04;13.27;;;3.90;;
9852;SDS011;4965;43.238;27.864;2022-07-03T01:24:55;3.88;;;3.50;;
9852;SDS011;4965;43.238;27.864;2022-07-03T01:27:33;6.60;;;4.13;;
9852;SDS011;4965;43.238;27.864;2022-07-03T01:30:07;10.65;;;4.72;;
9852;SDS011;4965;43.238;27.864;2022-07-03T01:32:37;8.23;;;4.72;;
9852;SDS011;4965;43.238;27.864;2022-07-03T01:35:07;11.63;;;4.55;;
9852;SDS011;4965;43.238;27.864;2022-07-03T01:37:38;5.88;;;4.63;;
9852;SDS011;4965;43.238;27.864;2022-07-03T01:40:07;8.77;;;4.75;;
9852;SDS011;4965;43.238;27.864;2022-07-03T01:42:36;6.63;;;4.82;;
9852;SDS011;4965;43.238;27.864;2022-07-03T01:45:05;6.93;;;5.40;;
9852;SDS011;4965;43.238;27.864;2022-07-03T01:47:35;9.10;;;5.53;;
9852;SDS011;4965;43.238;27.864;2022-07-03T01:50:07;5.75;;;4.80;;
9852;SDS011;4965;43.238;27.864;2022-07-03T01:52:37;14.45;;;5.15;;
9852;SDS011;4965;43.238;27.864;2022-07-03T01:55:07;10.57;;;5.50;;
9852;SDS011;4965;43.238;27.864;2022-07-03T01:57:37;8.13;;;5.78;;
9852;SDS011;4965;43.238;27.864;2022-07-03T02:00:09;8.55;;;5.82;;
9852;SDS011;4965;43.238;27.864;2022-07-03T02:02:39;5.18;;;4.68;;
9852;SDS011;4965;43.238;27.864;2022-07-03T02:05:14;6.95;;;5.40;;
9852;SDS011;4965;43.238;27.864;2022-07-03T02:07:55;11.80;;;5.10;;
9852;SDS011;4965;43.238;27.864;2022-07-03T02:10:29;6.20;;;5.03;;
9852;SDS011;4965;43.238;27.864;2022-07-03T02:13:04;7.10;;;5.65;;
9852;SDS011;4965;43.238;27.864;2022-07-03T02:15:34;6.15;;;5.07;;
9852;SDS011;4965;43.238;27.864;2022-07-03T02:18:07;11.75;;;5.95;;
9852;SDS011;4965;43.238;27.864;2022-07-03T02:20:45;9.23;;;5.47;;
9852;SDS011;4965;43.238;27.864;2022-07-03T02:23:16;7.57;;;5.65;;
9852;SDS011;4965;43.238;27.864;2022-07-03T02:25:50;9.88;;;6.10;;
9852;SDS011;4965;43.238;27.864;2022-07-03T02:28:25;9.00;;;6.85;;
9852;SDS011;4965;43.238;27.864;2022-07-03T02:30:59;9.32;;;6.88;;
9852;SDS011;4965;43.238;27.864;2022-07-03T02:33:29;7.60;;;5.97;;
9852;SDS011;4965;43.238;27.864;2022-07-03T02:35:58;10.48;;;5.65;;
9852;SDS011;4965;43.238;27.864;2022-07-03T02:38:26;9.93;;;6.20;;
9852;SDS011;4965;43.238;27.864;2022-07-03T02:40:56;13.05;;;6.85;;
9852;SDS011;4965;43.238;27.864;2022-07-03T02:43:31;13.60;;;6.50;;
9852;SDS011;4965;43.238;27.864;2022-07-03T02:46:04;9.32;;;6.22;;
9852;SDS011;4965;43.238;27.864;2022-07-03T02:48:47;10.65;;;6.55;;
9852;SDS011;4965;43.238;27.864;2022-07-03T02:51:21;7.22;;;6.05;;
9852;SDS011;4965;43.238;27.864;2022-07-03T02:53:53;14.68;;;6.82;;
9852;SDS011;4965;43.238;27.864;2022-07-03T02:56:27;8.25;;;6.70;;
9852;SDS011;4965;43.238;27.864;2022-07-03T02:59:12;10.73;;;6.28;;
9852;SDS011;4965;43.238;27.864;2022-07-03T03:01:49;13.32;;;6.88;;
9852;SDS011;4965;43.238;27.864;2022-07-03T03:04:25;20.10;;;6.60;;
9852;SDS011;4965;43.238;27.864;2022-07-03T03:06:59;11.25;;;6.47;;
9852;SDS011;4965;43.238;27.864;2022-07-03T03:09:32;8.07;;;6.15;;
9852;SDS011;4965;43.238;27.864;2022-07-03T03:12:09;9.65;;;6.47;;
9852;SDS011;4965;43.238;27.864;2022-07-03T03:14:40;20.45;;;6.68;;
9852;SDS011;4965;43.238;27.864;2022-07-03T03:17:09;8.10;;;6.03;;
9852;SDS011;4965;43.238;27.864;2022-07-03T03:19:40;9.80;;;5.80;;
9852;SDS011;4965;43.238;27.864;2022-07-03T03:22:10;8.95;;;6.60;;
9852;SDS011;4965;43.238;27.864;2022-07-03T03:24:51;12.80;;;6.55;;
9852;SDS011;4965;43.238;27.864;2022-07-03T03:27:18;7.25;;;5.18;;
9852;SDS011;4965;43.238;27.864;2022-07-03T03:29:48;7.90;;;5.00;;
9852;SDS011;4965;43.238;27.864;2022-07-03T03:32:16;8.63;;;5.40;;
9852;SDS011;4965;43.238;27.864;2022-07-03T03:34:43;7.93;;;6.10;;
9852;SDS011;4965;43.238;27.864;2022-07-03T03:37:12;8.02;;;5.15;;
9852;SDS011;4965;43.238;27.864;2022-07-03T03:39:39;9.32;;;5.60;;
9852;SDS011;4965;43.238;27.864;2022-07-03T03:42:06;6.25;;;5.63;;
9852;SDS011;4965;43.238;27.864;2022-07-03T03:44:33;5.68;;;5.18;;
9852;SDS011;4965;43.238;27.864;2022-07-03T03:47:02;7.25;;;5.65;;
9852;SDS011;4965;43.238;27.864;2022-07-03T03:49:29;7.97;;;5.55;;
9852;SDS011;4965;43.238;27.864;2022-07-03T03:51:56;9.13;;;5.57;;
9852;SDS011;4965;43.238;27.864;2022-07-03T03:54:23;6.32;;;5.53;;
9852;SDS011;4965;43.238;27.864;2022-07-03T03:56:50;5.28;;;4.78;;
9852;SDS011;4965;43.238;27.864;2022-07-03T03:59:17;6.53;;;5.35;;
9852;SDS011;4965;43.238;27.864;2022-07-03T04:01:44;4.97;;;4.43;;
9852;SDS011;4965;43.238;27.864;2022-07-03T04:04:14;5.47;;;4.93;;
9852;SDS011;4965;43.238;27.864;2022-07-03T04:06:42;5.90;;;5.10;;
9852;SDS011;4965;43.238;27.864;2022-07-03T04:09:09;8.02;;;5.18;;
9852;SDS011;4965;43.238;27.864;2022-07-03T04:11:38;15.35;;;6.30;;
9852;SDS011;4965;43.238;27.864;2022-07-03T04:14:04;16.85;;;7.57;;
9852;SDS011;4965;43.238;27.864;2022-07-03T04:16:32;14.63;;;7.10;;
9852;SDS011;4965;43.238;27.864;2022-07-03T04:19:00;13.65;;;6.93;;
9852;SDS011;4965;43.238;27.864;2022-07-03T04:21:29;13.65;;;7.13;;
9852;SDS011;4965;43.238;27.864;2022-07-03T04:23:56;14.95;;;7.22;;
9852;SDS011;4965;43.238;27.864;2022-07-03T04:26:22;15.70;;;6.70;;
9852;SDS011;4965;43.238;27.864;2022-07-03T04:28:49;18.15;;;6.80;;
9852;SDS011;4965;43.238;27.864;2022-07-03T04:31:16;17.88;;;7.35;;
9852;SDS011;4965;43.238;27.864;2022-07-03T04:33:43;19.90;;;7.13;;
9852;SDS011;4965;43.238;27.864;2022-07-03T04:36:10;17.70;;;6.88;;
9852;SDS011;4965;43.238;27.864;2022-07-03T04:38:38;14.68;;;7.35;;
9852;SDS011;4965;43.238;27.864;2022-07-03T04:41:05;19.15;;;7.20;;
9852;SDS011;4965;43.238;27.864;2022-07-03T04:43:32;17.02;;;6.85;;
9852;SDS011;4965;43.238;27.864;2022-07-03T04:45:59;15.25;;;6.97;;
9852;SDS011;4965;43.238;27.864;2022-07-03T04:48:27;16.05;;;6.55;;
9852;SDS011;4965;43.238;27.864;2022-07-03T04:50:54;18.77;;;7.05;;
9852;SDS011;4965;43.238;27.864;2022-07-03T04:53:21;11.57;;;6.70;;
9852;SDS011;4965;43.238;27.864;2022-07-03T04:55:50;13.88;;;6.22;;
9852;SDS011;4965;43.238;27.864;2022-07-03T04:58:17;9.27;;;5.85;;
9852;SDS011;4965;43.238;27.864;2022-07-03T05:00:44;9.57;;;6.32;;
9852;SDS011;4965;43.238;27.864;2022-07-03T05:03:11;15.07;;;5.88;;
9852;SDS011;4965;43.238;27.864;2022-07-03T05:05:39;12.70;;;5.70;;
9852;SDS011;4965;43.238;27.864;2022-07-03T05:08:06;10.15;;;5.60;;
9852;SDS011;4965;43.238;27.864;2022-07-03T05:10:33;13.57;;;6.90;;
9852;SDS011;4965;43.238;27.864;2022-07-03T05:13:01;13.75;;;7.07;;
9852;SDS011;4965;43.238;27.864;2022-07-03T05:15:28;9.32;;;6.55;;
9852;SDS011;4965;43.238;27.864;2022-07-03T05:17:55;17.88;;;6.35;;
9852;SDS011;4965;43.238;27.864;2022-07-03T05:20:22;11.00;;;5.43;;
9852;SDS011;4965;43.238;27.864;2022-07-03T05:22:53;14.82;;;5.80;;
9852;SDS011;4965;43.238;27.864;2022-07-03T05:25:21;12.85;;;5.85;;
9852;SDS011;4965;43.238;27.864;2022-07-03T05:27:49;11.13;;;4.55;;
9852;SDS011;4965;43.238;27.864;2022-07-03T05:30:19;10.10;;;4.43;;
9852;SDS011;4965;43.238;27.864;2022-07-03T05:32:46;10.80;;;4.97;;
9852;SDS011;4965;43.238;27.864;2022-07-03T05:35:14;10.80;;;4.65;;
9852;SDS011;4965;43.238;27.864;2022-07-03T05:37:41;7.03;;;4.72;;
9852;SDS011;4965;43.238;27.864;2022-07-03T05:40:09;8.95;;;5.55;;
9852;SDS011;4965;43.238;27.864;2022-07-03T05:42:36;14.63;;;5.75;;
9852;SDS011;4965;43.238;27.864;2022-07-03T05:45:03;6.50;;;4.90;;
9852;SDS011;4965;43.238;27.864;2022-07-03T05:47:32;6.75;;;4.32;;
9852;SDS011;4965;43.238;27.864;2022-07-03T05:49:59;10.15;;;4.65;;
9852;SDS011;4965;43.238;27.864;2022-07-03T05:52:26;17.80;;;5.07;;
9852;SDS011;4965;43.238;27.864;2022-07-03T05:54:53;8.70;;;4.20;;
9852;SDS011;4965;43.238;27.864;2022-07-03T05:57:20;6.60;;;4.75;;
9852;SDS011;4965;43.238;27.864;2022-07-03T05:59:47;4.72;;;4.28;;
9852;SDS011;4965;43.238;27.864;2022-07-03T06:02:14;8.98;;;4.03;;
9852;SDS011;4965;43.238;27.864;2022-07-03T06:04:42;12.63;;;4.00;;
9852;SDS011;4965;43.238;27.864;2022-07-03T06:07:09;13.50;;;4.45;;
9852;SDS011;4965;43.238;27.864;2022-07-03T06:09:36;6.28;;;4.10;;
9852;SDS011;4965;43.238;27.864;2022-07-03T06:12:03;10.07;;;3.88;;
9852;SDS011;4965;43.238;27.864;2022-07-03T06:14:31;5.68;;;3.78;;
9852;SDS011;4965;43.238;27.864;2022-07-03T06:16:58;6.07;;;3.95;;
9852;SDS011;4965;43.238;27.864;2022-07-03T06:19:25;8.93;;;3.50;;
9852;SDS011;4965;43.238;27.864;2022-07-03T06:21:59;4.00;;;3.60;;
9852;SDS011;4965;43.238;27.864;2022-07-03T06:24:43;10.98;;;3.67;;
9852;SDS011;4965;43.238;27.864;2022-07-03T06:27:10;3.92;;;3.47;;
9852;SDS011;4965;43.238;27.864;2022-07-03T06:29:37;7.90;;;3.63;;
9852;SDS011;4965;43.238;27.864;2022-07-03T06:32:04;6.45;;;3.70;;
9852;SDS011;4965;43.238;27.864;2022-07-03T06:34:31;5.07;;;3.28;;
9852;SDS011;4965;43.238;27.864;2022-07-03T06:36:59;3.78;;;2.58;;
9852;SDS011;4965;43.238;27.864;2022-07-03T06:39:26;4.32;;;2.58;;
9852;SDS011;4965;43.238;27.864;2022-07-03T06:41:53;4.03;;;2.63;;
9852;SDS011;4965;43.238;27.864;2022-07-03T06:44:20;4.15;;;2.78;;
9852;SDS011;4965;43.238;27.864;2022-07-03T06:46:47;4.47;;;2.30;;
9852;SDS011;4965;43.238;27.864;2022-07-03T06:49:14;3.53;;;2.60;;
9852;SDS011;4965;43.238;27.864;2022-07-03T06:51:41;5.75;;;3.08;;
9852;SDS011;4965;43.238;27.864;2022-07-03T06:54:09;4.90;;;2.42;;
9852;SDS011;4965;43.238;27.864;2022-07-03T06:56:36;6.57;;;2.65;;
9852;SDS011;4965;43.238;27.864;2022-07-03T06:59:04;9.45;;;2.50;;
9852;SDS011;4965;43.238;27.864;2022-07-03T07:01:31;2.97;;;2.65;;
9852;SDS011;4965;43.238;27.864;2022-07-03T07:03:57;5.05;;;2.53;;
9852;SDS011;4965;43.238;27.864;2022-07-03T07:06:24;8.07;;;3.05;;
9852;SDS011;4965;43.238;27.864;2022-07-03T07:08:51;5.15;;;2.58;;
9852;SDS011;4965;43.238;27.864;2022-07-03T07:11:19;5.15;;;2.13;;
9852;SDS011;4965;43.238;27.864;2022-07-03T07:13:47;4.15;;;2.45;;
9852;SDS011;4965;43.238;27.864;2022-07-03T07:16:14;5.65;;;2.40;;
9852;SDS011;4965;43.238;27.864;2022-07-03T07:18:41;4.78;;;2.60;;
9852;SDS011;4965;43.238;27.864;2022-07-03T07:21:08;5.82;;;2.55;;
9852;SDS011;4965;43.238;27.864;2022-07-03T07:23:36;5.28;;;2.38;;
9852;SDS011;4965;43.238;27.864;2022-07-03T07:26:03;5.75;;;2.60;;
9852;SDS011;4965;43.238;27.864;2022-07-03T07:28:33;5.32;;;2.40;;
9852;SDS011;4965;43.238;27.864;2022-07-03T07:31:00;5.22;;;2.45;;
9852;SDS011;4965;43.238;27.864;2022-07-03T07:33:27;6.72;;;2.55;;
9852;SDS011;4965;43.238;27.864;2022-07-03T07:35:54;4.40;;;2.60;;
9852;SDS011;4965;43.238;27.864;2022-07-03T07:38:22;3.90;;;2.53;;
9852;SDS011;4965;43.238;27.864;2022-07-03T07:40:49;5.63;;;2.67;;
9852;SDS011;4965;43.238;27.864;2022-07-03T07:43:16;9.07;;;2.50;;
9852;SDS011;4965;43.238;27.864;2022-07-03T07:45:44;4.45;;;2.40;;
9852;SDS011;4965;43.238;27.864;2022-07-03T07:48:11;6.90;;;2.22;;
9852;SDS011;4965;43.238;27.864;2022-07-03T07:50:38;4.80;;;2.40;;
9852;SDS011;4965;43.238;27.864;2022-07-03T07:53:05;2.63;;;2.42;;
9852;SDS011;4965;43.238;27.864;2022-07-03T07:55:31;2.97;;;2.75;;
9852;SDS011;4965;43.238;27.864;2022-07-03T07:58:17;5.63;;;2.70;;
9852;SDS011;4965;43.238;27.864;2022-07-03T08:00:45;3.95;;;2.60;;
9852;SDS011;4965;43.238;27.864;2022-07-03T08:03:26;6.28;;;2.25;;
9852;SDS011;4965;43.238;27.864;2022-07-03T08:06:11;3.25;;;2.10;;
9852;SDS011;4965;43.238;27.864;2022-07-03T08:08:38;5.35;;;2.50;;
9852;SDS011;4965;43.238;27.864;2022-07-03T08:11:05;4.85;;;2.60;;
9852;SDS011;4965;43.238;27.864;2022-07-03T08:13:32;5.80;;;2.42;;
9852;SDS011;4965;43.238;27.864;2022-07-03T08:16:01;7.90;;;2.70;;
9852;SDS011;4965;43.238;27.864;2022-07-03T08:18:28;5.45;;;2.45;;
9852;SDS011;4965;43.238;27.864;2022-07-03T08:20:56;11.32;;;2.65;;
9852;SDS011;4965;43.238;27.864;2022-07-03T08:23:23;5.57;;;2.28;;
9852;SDS011;4965;43.238;27.864;2022-07-03T08:25:50;3.17;;;2.88;;
9852;SDS011;4965;43.238;27.864;2022-07-03T08:28:17;5.50;;;2.70;;
9852;SDS011;4965;43.238;27.864;2022-07-03T08:30:44;4.82;;;2.30;;
9852;SDS011;4965;43.238;27.864;2022-07-03T08:33:13;2.38;;;2.15;;
9852;SDS011;4965;43.238;27.864;2022-07-03T08:35:40;4.88;;;2.65;;
9852;SDS011;4965;43.238;27.864;2022-07-03T08:38:07;5.15;;;2.70;;
9852;SDS011;4965;43.238;27.864;2022-07-03T08:40:34;8.27;;;2.45;;
9852;SDS011;4965;43.238;27.864;2022-07-03T08:43:02;5.85;;;2.33;;
9852;SDS011;4965;43.238;27.864;2022-07-03T08:45:29;4.43;;;3.28;;
9852;SDS011;4965;43.238;27.864;2022-07-03T08:47:57;4.57;;;2.30;;
9852;SDS011;4965;43.238;27.864;2022-07-03T08:50:26;8.45;;;2.60;;
9852;SDS011;4965;43.238;27.864;2022-07-03T08:52:54;3.75;;;2.78;;
9852;SDS011;4965;43.238;27.864;2022-07-03T08:55:22;4.38;;;2.60;;
9852;SDS011;4965;43.238;27.864;2022-07-03T08:57:49;3.25;;;2.40;;
9852;SDS011;4965;43.238;27.864;2022-07-03T09:00:16;7.88;;;2.20;;
9852;SDS011;4965;43.238;27.864;2022-07-03T09:02:48;3.10;;;2.30;;
9852;SDS011;4965;43.238;27.864;2022-07-03T09:05:16;2.97;;;2.30;;
9852;SDS011;4965;43.238;27.864;2022-07-03T09:07:45;5.50;;;2.03;;
9852;SDS011;4965;43.238;27.864;2022-07-03T09:10:13;12.20;;;2.50;;
9852;SDS011;4965;43.238;27.864;2022-07-03T09:12:41;2.63;;;2.28;;
9852;SDS011;4965;43.238;27.864;2022-07-03T09:15:09;3.65;;;2.55;;
9852;SDS011;4965;43.238;27.864;2022-07-03T09:17:36;4.07;;;2.40;;
9852;SDS011;4965;43.238;27.864;2022-07-03T09:20:04;3.55;;;2.60;;
9852;SDS011;4965;43.238;27.864;2022-07-03T09:22:33;4.10;;;2.47;;
9852;SDS011;4965;43.238;27.864;2022-07-03T09:25:06;8.13;;;2.30;;
9852;SDS011;4965;43.238;27.864;2022-07-03T09:27:35;10.93;;;2.30;;
9852;SDS011;4965;43.238;27.864;2022-07-03T09:30:04;5.05;;;2.30;;
9852;SDS011;4965;43.238;27.864;2022-07-03T09:32:40;3.78;;;2.47;;
9852;SDS011;4965;43.238;27.864;2022-07-03T09:35:09;3.25;;;2.28;;
9852;SDS011;4965;43.238;27.864;2022-07-03T09:37:39;4.65;;;2.25;;
9852;SDS011;4965;43.238;27.864;2022-07-03T09:40:08;7.55;;;2.45;;
9852;SDS011;4965;43.238;27.864;2022-07-03T09:42:35;5.35;;;2.58;;
9852;SDS011;4965;43.238;27.864;2022-07-03T09:45:03;3.55;;;2.28;;
9852;SDS011;4965;43.238;27.864;2022-07-03T09:47:30;4.65;;;2.08;;
9852;SDS011;4965;43.238;27.864;2022-07-03T09:49:59;6.65;;;2.08;;
9852;SDS011;4965;43.238;27.864;2022-07-03T09:52:29;3.97;;;2.35;;
9852;SDS011;4965;43.238;27.864;2022-07-03T09:54:58;8.52;;;2.35;;
9852;SDS011;4965;43.238;27.864;2022-07-03T09:57:28;4.13;;;2.33;;
9852;SDS011;4965;43.238;27.864;2022-07-03T10:02:57;10.43;;;2.10;;
9852;SDS011;4965;43.238;27.864;2022-07-03T10:05:26;18.60;;;3.13;;
9852;SDS011;4965;43.238;27.864;2022-07-03T10:07:56;6.00;;;2.05;;
9852;SDS011;4965;43.238;27.864;2022-07-03T10:10:26;3.38;;;2.20;;
9852;SDS011;4965;43.238;27.864;2022-07-03T10:12:56;3.30;;;2.20;;
9852;SDS011;4965;43.238;27.864;2022-07-03T10:15:24;3.88;;;2.13;;
9852;SDS011;4965;43.238;27.864;2022-07-03T10:17:52;3.65;;;2.20;;
9852;SDS011;4965;43.238;27.864;2022-07-03T10:20:25;8.48;;;1.75;;
9852;SDS011;4965;43.238;27.864;2022-07-03T10:22:53;3.13;;;1.80;;
9852;SDS011;4965;43.238;27.864;2022-07-03T10:25:23;3.58;;;2.78;;
9852;SDS011;4965;43.238;27.864;2022-07-03T10:27:50;6.47;;;2.00;;
9852;SDS011;4965;43.238;27.864;2022-07-03T10:30:20;4.35;;;2.30;;
9852;SDS011;4965;43.238;27.864;2022-07-03T10:32:49;2.30;;;2.03;;
9852;SDS011;4965;43.238;27.864;2022-07-03T10:35:17;8.70;;;2.30;;
9852;SDS011;4965;43.238;27.864;2022-07-03T10:40:42;4.75;;;2.50;;
9852;SDS011;4965;43.238;27.864;2022-07-03T10:43:35;3.67;;;1.90;;
9852;SDS011;4965;43.238;27.864;2022-07-03T10:46:24;4.20;;;1.90;;
9852;SDS011;4965;43.238;27.864;2022-07-03T10:48:55;5.07;;;2.17;;
9852;SDS011;4965;43.238;27.864;2022-07-03T10:51:24;2.55;;;1.90;;
9852;SDS011;4965;43.238;27.864;2022-07-03T11:02:28;2.90;;;2.15;;
9852;SDS011;4965;43.238;27.864;2022-07-03T11:05:12;7.38;;;2.20;;
9852;SDS011;4965;43.238;27.864;2022-07-03T11:10:33;7.40;;;2.20;;
9852;SDS011;4965;43.238;27.864;2022-07-03T11:13:09;4.50;;;2.15;;
9852;SDS011;4965;43.238;27.864;2022-07-03T11:15:51;7.28;;;2.28;;
9852;SDS011;4965;43.238;27.864;2022-07-03T11:18:24;8.68;;;2.53;;
9852;SDS011;4965;43.238;27.864;2022-07-03T11:20:58;6.45;;;2.25;;
9852;SDS011;4965;43.238;27.864;2022-07-03T11:23:33;2.20;;;2.00;;
9852;SDS011;4965;43.238;27.864;2022-07-03T11:26:19;9.90;;;2.38;;
9852;SDS011;4965;43.238;27.864;2022-07-03T11:28:48;6.13;;;2.20;;
9852;SDS011;4965;43.238;27.864;2022-07-03T11:31:18;10.60;;;2.30;;
9852;SDS011;4965;43.238;27.864;2022-07-03T11:33:51;3.47;;;2.28;;
9852;SDS011;4965;43.238;27.864;2022-07-03T11:36:24;2.33;;;2.08;;
9852;SDS011;4965;43.238;27.864;2022-07-03T11:41:45;7.85;;;2.25;;
9852;SDS011;4965;43.238;27.864;2022-07-03T11:44:16;4.82;;;1.98;;
9852;SDS011;4965;43.238;27.864;2022-07-03T11:46:51;3.67;;;1.85;;
9852;SDS011;4965;43.238;27.864;2022-07-03T11:49:21;4.88;;;2.10;;
9852;SDS011;4965;43.238;27.864;2022-07-03T11:51:57;8.38;;;3.05;;
9852;SDS011;4965;43.238;27.864;2022-07-03T11:54:26;7.75;;;2.20;;
9852;SDS011;4965;43.238;27.864;2022-07-03T11:56:59;8.77;;;2.20;;
9852;SDS011;4965;43.238;27.864;2022-07-03T11:59:27;9.98;;;2.33;;
9852;SDS011;4965;43.238;27.864;2022-07-03T12:02:00;4.10;;;2.30;;
9852;SDS011;4965;43.238;27.864;2022-07-03T12:04:30;1.92;;;1.75;;
9852;SDS011;4965;43.238;27.864;2022-07-03T12:06:58;6.55;;;2.20;;
9852;SDS011;4965;43.238;27.864;2022-07-03T12:09:29;5.50;;;2.00;;
9852;SDS011;4965;43.238;27.864;2022-07-03T12:11:59;7.20;;;2.58;;
9852;SDS011;4965;43.238;27.864;2022-07-03T12:14:34;6.50;;;2.30;;
9852;SDS011;4965;43.238;27.864;2022-07-03T12:17:07;6.50;;;2.47;;
9852;SDS011;4965;43.238;27.864;2022-07-03T12:19:36;2.42;;;2.05;;
9852;SDS011;4965;43.238;27.864;2022-07-03T12:22:04;5.03;;;2.35;;
9852;SDS011;4965;43.238;27.864;2022-07-03T12:24:31;3.72;;;2.22;;
9852;SDS011;4965;43.238;27.864;2022-07-03T12:27:01;4.63;;;2.22;;
9852;SDS011;4965;43.238;27.864;2022-07-03T12:29:30;8.30;;;2.50;;
9852;SDS011;4965;43.238;27.864;2022-07-03T12:31:58;19.17;;;2.47;;
9852;SDS011;4965;43.238;27.864;2022-07-03T12:34:25;3.35;;;1.90;;
9852;SDS011;4965;43.238;27.864;2022-07-03T12:36:58;5.95;;;2.40;;
9852;SDS011;4965;43.238;27.864;2022-07-03T12:39:40;3.67;;;2.47;;
9852;SDS011;4965;43.238;27.864;2022-07-03T12:42:17;6.38;;;2.25;;
9852;SDS011;4965;43.238;27.864;2022-07-03T12:44:54;7.97;;;2.30;;
9852;SDS011;4965;43.238;27.864;2022-07-03T12:47:22;5.88;;;2.30;;
9852;SDS011;4965;43.238;27.864;2022-07-03T12:49:54;3.25;;;2.33;;
9852;SDS011;4965;43.238;27.864;2022-07-03T12:52:24;8.88;;;2.35;;
9852;SDS011;4965;43.238;27.864;2022-07-03T12:54:51;7.45;;;2.22;;
9852;SDS011;4965;43.238;27.864;2022-07-03T12:57:18;7.40;;;2.42;;
9852;SDS011;4965;43.238;27.864;2022-07-03T13:00:03;4.95;;;2.20;;
9852;SDS011;4965;43.238;27.864;2022-07-03T13:02:31;6.97;;;2.45;;
9852;SDS011;4965;43.238;27.864;2022-07-03T13:04:58;6.80;;;2.28;;
9852;SDS011;4965;43.238;27.864;2022-07-03T13:07:29;4.57;;;2.30;;
9852;SDS011;4965;43.238;27.864;2022-07-03T13:09:59;6.20;;;2.10;;
9852;SDS011;4965;43.238;27.864;2022-07-03T13:12:27;4.10;;;2.53;;
9852;SDS011;4965;43.238;27.864;2022-07-03T13:14:54;5.80;;;2.15;;
9852;SDS011;4965;43.238;27.864;2022-07-03T13:17:22;3.63;;;2.30;;
9852;SDS011;4965;43.238;27.864;2022-07-03T13:19:49;5.10;;;2.33;;
9852;SDS011;4965;43.238;27.864;2022-07-03T13:22:16;5.93;;;2.20;;
9852;SDS011;4965;43.238;27.864;2022-07-03T13:24:44;6.07;;;2.00;;
9852;SDS011;4965;43.238;27.864;2022-07-03T13:27:11;8.88;;;2.30;;
9852;SDS011;4965;43.238;27.864;2022-07-03T13:29:38;4.40;;;2.00;;
9852;SDS011;4965;43.238;27.864;2022-07-03T13:32:05;2.92;;;2.20;;
9852;SDS011;4965;43.238;27.864;2022-07-03T13:34:32;8.00;;;1.90;;
9852;SDS011;4965;43.238;27.864;2022-07-03T13:37:00;3.90;;;2.40;;
9852;SDS011;4965;43.238;27.864;2022-07-03T13:39:27;5.38;;;2.33;;
9852;SDS011;4965;43.238;27.864;2022-07-03T13:41:55;3.20;;;2.20;;
9852;SDS011;4965;43.238;27.864;2022-07-03T13:44:22;2.25;;;1.95;;
9852;SDS011;4965;43.238;27.864;2022-07-03T13:46:49;7.10;;;2.85;;
9852;SDS011;4965;43.238;27.864;2022-07-03T13:49:16;6.38;;;2.17;;
9852;SDS011;4965;43.238;27.864;2022-07-03T13:51:43;3.30;;;2.13;;
9852;SDS011;4965;43.238;27.864;2022-07-03T13:54:10;4.75;;;2.72;;
9852;SDS011;4965;43.238;27.864;2022-07-03T13:56:37;5.93;;;2.13;;
9852;SDS011;4965;43.238;27.864;2022-07-03T13:59:05;10.23;;;2.75;;
9852;SDS011;4965;43.238;27.864;2022-07-03T14:01:32;2.92;;;2.00;;
9852;SDS011;4965;43.238;27.864;2022-07-03T14:03:59;3.45;;;2.20;;
9852;SDS011;4965;43.238;27.864;2022-07-03T14:06:26;9.02;;;2.47;;
9852;SDS011;4965;43.238;27.864;2022-07-03T14:08:53;6.15;;;2.50;;
9852;SDS011;4965;43.238;27.864;2022-07-03T14:11:20;9.68;;;2.53;;
9852;SDS011;4965;43.238;27.864;2022-07-03T14:13:47;9.40;;;2.28;;
9852;SDS011;4965;43.238;27.864;2022-07-03T14:16:15;6.68;;;2.30;;
9852;SDS011;4965;43.238;27.864;2022-07-03T14:18:42;2.65;;;2.15;;
9852;SDS011;4965;43.238;27.864;2022-07-03T14:21:09;3.22;;;2.38;;
9852;SDS011;4965;43.238;27.864;2022-07-03T14:23:36;7.78;;;2.50;;
9852;SDS011;4965;43.238;27.864;2022-07-03T14:26:03;2.83;;;2.40;;
9852;SDS011;4965;43.238;27.864;2022-07-03T14:28:30;9.10;;;2.58;;
9852;SDS011;4965;43.238;27.864;2022-07-03T14:31:15;8.50;;;2.30;;
9852;SDS011;4965;43.238;27.864;2022-07-03T14:33:56;5.40;;;2.20;;
9852;SDS011;4965;43.238;27.864;2022-07-03T14:36:23;4.95;;;2.03;;
9852;SDS011;4965;43.238;27.864;2022-07-03T14:38:50;4.35;;;2.05;;
9852;SDS011;4965;43.238;27.864;2022-07-03T14:41:17;3.30;;;2.20;;
9852;SDS011;4965;43.238;27.864;2022-07-03T14:43:44;5.13;;;2.15;;
9852;SDS011;4965;43.238;27.864;2022-07-03T14:46:11;8.52;;;2.30;;
9852;SDS011;4965;43.238;27.864;2022-07-03T14:48:39;2.47;;;2.28;;
9852;SDS011;4965;43.238;27.864;2022-07-03T14:51:06;3.95;;;2.35;;
9852;SDS011;4965;43.238;27.864;2022-07-03T14:53:33;6.82;;;2.05;;
9852;SDS011;4965;43.238;27.864;2022-07-03T14:55:59;3.58;;;2.10;;
9852;SDS011;4965;43.238;27.864;2022-07-03T14:58:27;8.27;;;2.38;;
9852;SDS011;4965;43.238;27.864;2022-07-03T15:00:55;7.50;;;2.30;;
9852;SDS011;4965;43.238;27.864;2022-07-03T15:03:27;8.23;;;2.38;;
9852;SDS011;4965;43.238;27.864;2022-07-03T15:05:57;5.50;;;2.35;;
9852;SDS011;4965;43.238;27.864;2022-07-03T15:11:23;6.80;;;2.75;;
9852;SDS011;4965;43.238;27.864;2022-07-03T15:14:16;3.60;;;2.45;;
9852;SDS011;4965;43.238;27.864;2022-07-03T15:16:46;4.97;;;2.33;;
9852;SDS011;4965;43.238;27.864;2022-07-03T15:19:15;5.88;;;2.58;;
9852;SDS011;4965;43.238;27.864;2022-07-03T15:21:46;7.53;;;2.20;;
9852;SDS011;4965;43.238;27.864;2022-07-03T15:24:13;4.75;;;1.90;;
9852;SDS011;4965;43.238;27.864;2022-07-03T15:26:42;3.38;;;2.50;;
9852;SDS011;4965;43.238;27.864;2022-07-03T15:29:17;4.05;;;1.98;;
9852;SDS011;4965;43.238;27.864;2022-07-03T15:31:45;3.83;;;2.22;;
9852;SDS011;4965;43.238;27.864;2022-07-03T15:34:13;6.95;;;2.20;;
9852;SDS011;4965;43.238;27.864;2022-07-03T15:36:42;3.33;;;2.47;;